createdAt,value
2023-01-17T00:00:50.495Z,1.53
2023-01-17T00:03:17.128Z,2.43
2023-01-17T00:05:43.806Z,1.30
2023-01-17T00:08:11.844Z,0.97
2023-01-17T00:10:39.620Z,0.80
2023-01-17T00:13:06.302Z,1.00
2023-01-17T00:15:34.343Z,2.23
2023-01-17T00:18:01.017Z,1.20
2023-01-17T00:20:29.791Z,1.90
2023-01-17T00:22:56.445Z,1.13
2023-01-17T00:25:25.594Z,1.20
2023-01-17T00:27:52.286Z,1.10
2023-01-17T00:30:19.237Z,0.83
2023-01-17T00:32:47.262Z,1.03
2023-01-17T00:35:14.369Z,1.33
2023-01-17T00:37:41.043Z,1.00
2023-01-17T00:40:10.353Z,2.40
2023-01-17T00:42:37.120Z,1.00
2023-01-17T00:45:04.473Z,1.37
2023-01-17T00:47:31.126Z,1.23
2023-01-17T00:49:59.170Z,1.70
2023-01-17T00:52:25.841Z,2.40
2023-01-17T00:54:52.496Z,1.10
2023-01-17T00:57:19.180Z,2.20
2023-01-17T00:59:45.902Z,0.70
2023-01-17T01:02:12.721Z,1.03
2023-01-17T01:04:39.553Z,0.80
2023-01-17T01:07:07.591Z,2.97
2023-01-17T01:09:34.246Z,2.77
2023-01-17T01:12:02.044Z,0.97
2023-01-17T01:14:28.837Z,1.00
2023-01-17T01:16:55.557Z,0.60
2023-01-17T01:19:22.315Z,0.60
2023-01-17T01:21:49.304Z,0.83
2023-01-17T01:24:17.615Z,1.17
2023-01-17T01:26:44.303Z,0.50
2023-01-17T01:29:10.966Z,0.50
2023-01-17T01:31:37.670Z,0.40
2023-01-17T01:34:04.471Z,0.40
2023-01-17T01:36:31.185Z,0.60
2023-01-17T01:38:57.795Z,0.50
2023-01-17T01:41:25.808Z,0.77
2023-01-17T01:43:54.010Z,3.60
2023-01-17T01:46:23.985Z,0.70
2023-01-17T01:48:54.571Z,1.93
2023-01-17T01:51:27.523Z,1.33
2023-01-17T01:53:58.886Z,1.10
2023-01-17T01:56:29.189Z,0.47
2023-01-17T01:58:58.127Z,1.17
2023-01-17T02:01:24.933Z,1.00
2023-01-17T02:03:52.215Z,1.77
2023-01-17T02:06:29.036Z,3.43
2023-01-17T02:08:58.907Z,1.13
2023-01-17T02:11:27.319Z,1.83
2023-01-17T02:13:54.161Z,0.60
2023-01-17T02:16:33.369Z,0.77
2023-01-17T02:19:12.734Z,1.33
2023-01-17T02:21:42.348Z,0.70
2023-01-17T02:24:39.179Z,0.90
2023-01-17T02:27:14.966Z,1.50
2023-01-17T02:30:17.348Z,0.50
2023-01-17T02:33:09.643Z,1.40
2023-01-17T02:35:47.179Z,0.60
2023-01-17T02:38:29.577Z,0.50
2023-01-17T02:41:01.158Z,1.50
2023-01-17T02:43:28.522Z,0.60
2023-01-17T02:45:55.257Z,1.27
2023-01-17T02:48:26.223Z,0.50
2023-01-17T02:51:19.253Z,1.13
2023-01-17T02:53:54.851Z,0.50
2023-01-17T02:56:35.294Z,1.60
2023-01-17T02:59:13.199Z,0.50
2023-01-17T03:01:50.134Z,0.80
2023-01-17T03:04:24.713Z,0.70
2023-01-17T03:06:57.487Z,2.20
2023-01-17T03:09:25.927Z,0.50
2023-01-17T03:11:53.011Z,0.50
2023-01-17T03:14:19.827Z,0.50
2023-01-17T03:16:47.211Z,0.50
2023-01-17T03:19:13.922Z,0.70
2023-01-17T03:21:42.238Z,0.50
2023-01-17T03:24:09.070Z,0.60
2023-01-17T03:26:35.774Z,0.67
2023-01-17T03:29:02.585Z,1.07
2023-01-17T03:31:29.344Z,1.33
2023-01-17T03:33:56.012Z,0.63
2023-01-17T03:36:22.675Z,0.63
2023-01-17T03:38:50.760Z,0.70
2023-01-17T03:41:17.430Z,0.63
2023-01-17T03:43:44.081Z,0.70
2023-01-17T03:46:18.998Z,1.53
2023-01-17T03:48:45.671Z,0.70
2023-01-17T03:51:12.335Z,0.70
2023-01-17T03:53:39.018Z,0.57
2023-01-17T03:56:07.969Z,1.13
2023-01-17T03:58:34.685Z,0.77
2023-01-17T04:01:01.476Z,0.80
2023-01-17T04:03:28.191Z,0.67
2023-01-17T04:05:54.872Z,0.73
2023-01-17T04:08:21.647Z,0.70
2023-01-17T04:10:48.419Z,0.70
2023-01-17T04:13:16.421Z,0.80
2023-01-17T04:15:44.392Z,0.80
2023-01-17T04:18:12.085Z,1.13
2023-01-17T04:20:40.089Z,0.63
2023-01-17T04:23:07.138Z,0.90
2023-01-17T04:25:34.304Z,0.57
2023-01-17T04:28:02.010Z,1.07
2023-01-17T04:30:31.189Z,0.87
2023-01-17T04:32:58.274Z,1.50
2023-01-17T04:35:25.158Z,1.30
2023-01-17T04:37:53.013Z,0.67
2023-01-17T04:40:20.127Z,0.80
2023-01-17T04:42:47.239Z,0.50
2023-01-17T04:45:14.700Z,0.87
2023-01-17T04:47:42.833Z,1.00
2023-01-17T04:50:11.164Z,1.10
2023-01-17T04:52:37.806Z,1.40
2023-01-17T04:55:05.583Z,1.00
2023-01-17T04:57:32.470Z,0.83
2023-01-17T04:59:59.192Z,2.00
2023-01-17T05:02:25.976Z,0.70
2023-01-17T05:04:54.025Z,0.80
2023-01-17T05:07:20.713Z,1.73
2023-01-17T05:09:47.387Z,0.80
2023-01-17T05:12:14.130Z,0.97
2023-01-17T05:14:40.892Z,1.07
2023-01-17T05:17:07.584Z,0.53
2023-01-17T05:19:34.577Z,0.90
2023-01-17T05:22:02.619Z,1.20
2023-01-17T05:24:29.633Z,1.33
2023-01-17T05:26:56.431Z,0.90
2023-01-17T05:29:23.103Z,0.67
2023-01-17T05:31:49.812Z,4.60
2023-01-17T05:34:16.435Z,0.80
2023-01-17T05:36:43.140Z,1.73
2023-01-17T05:39:11.219Z,0.70
2023-01-17T05:41:37.882Z,1.20
2023-01-17T05:44:04.889Z,0.93
2023-01-17T05:46:31.569Z,1.10
2023-01-17T05:48:58.295Z,0.97
2023-01-17T05:51:25.049Z,1.40
2023-01-17T05:53:51.721Z,0.70
2023-01-17T05:56:19.721Z,1.47
2023-01-17T05:58:46.411Z,1.00
2023-01-17T06:01:13.108Z,1.00
2023-01-17T06:03:39.844Z,0.87
2023-01-17T06:06:08.255Z,0.90
2023-01-17T06:08:35.033Z,0.77
2023-01-17T06:11:01.687Z,0.80
2023-01-17T06:13:29.786Z,0.70
2023-01-17T06:15:56.688Z,0.80
2023-01-17T06:18:23.424Z,1.00
2023-01-17T06:20:53.506Z,1.00
2023-01-17T06:23:21.279Z,1.17
2023-01-17T06:25:48.603Z,0.77
2023-01-17T06:28:19.945Z,0.80
2023-01-17T06:30:48.437Z,0.90
2023-01-17T06:33:15.607Z,0.70
2023-01-17T06:35:47.963Z,0.80
2023-01-17T06:38:14.973Z,0.77
2023-01-17T06:40:41.708Z,0.67
2023-01-17T06:43:08.359Z,0.93
2023-01-17T06:45:36.043Z,0.70
2023-01-17T06:48:04.981Z,0.67
2023-01-17T06:50:32.167Z,0.80
2023-01-17T06:53:00.843Z,0.80
2023-01-17T06:55:28.113Z,0.80
2023-01-17T06:57:55.089Z,0.77
2023-01-17T07:00:22.390Z,0.50
2023-01-17T07:02:49.323Z,0.97
2023-01-17T07:05:17.629Z,0.80
2023-01-17T07:07:45.372Z,1.03
2023-01-17T07:10:13.610Z,0.57
2023-01-17T07:12:41.039Z,0.80
2023-01-17T07:15:08.879Z,0.50
2023-01-17T07:17:35.914Z,1.17
2023-01-17T07:20:03.127Z,0.90
2023-01-17T07:22:31.186Z,0.70
2023-01-17T07:24:57.848Z,0.67
2023-01-17T07:27:24.930Z,0.67
2023-01-17T07:29:54.082Z,1.03
2023-01-17T07:32:21.131Z,3.43
2023-01-17T07:34:47.858Z,2.20
2023-01-17T07:37:15.441Z,0.70
2023-01-17T07:39:43.591Z,2.60
2023-01-17T07:42:10.363Z,0.97
2023-01-17T07:44:37.012Z,0.50
2023-01-17T07:47:03.672Z,0.90
2023-01-17T07:49:30.362Z,0.70
2023-01-17T07:51:57.003Z,0.90
2023-01-17T07:54:23.681Z,0.90
2023-01-17T07:56:51.748Z,0.90
2023-01-17T07:59:18.607Z,0.97
2023-01-17T08:01:45.538Z,0.63
2023-01-17T08:04:12.310Z,1.57
2023-01-17T08:06:41.985Z,1.23
2023-01-17T08:09:08.694Z,0.63
2023-01-17T08:11:35.443Z,1.63
2023-01-17T08:14:03.443Z,1.73
2023-01-17T08:16:30.217Z,0.50
2023-01-17T08:18:57.111Z,0.70
2023-01-17T08:21:24.287Z,2.83
2023-01-17T08:23:52.015Z,0.70
2023-01-17T08:26:20.455Z,0.60
2023-01-17T08:28:47.749Z,6.23
2023-01-17T08:31:15.785Z,0.80
2023-01-17T08:33:42.474Z,0.87
2023-01-17T08:36:09.164Z,0.50
2023-01-17T08:38:35.837Z,0.60
2023-01-17T08:41:02.550Z,0.53
2023-01-17T08:43:29.191Z,0.50
2023-01-17T08:45:55.926Z,0.70
2023-01-17T08:48:24.172Z,0.73
2023-01-17T08:50:51.085Z,0.90
2023-01-17T08:53:17.968Z,0.50
2023-01-17T08:55:44.701Z,1.57
2023-01-17T08:58:11.361Z,0.50
2023-01-17T09:00:38.043Z,1.27
2023-01-17T09:03:04.722Z,0.90
2023-01-17T09:05:32.963Z,1.10
2023-01-17T09:07:59.710Z,1.77
2023-01-17T09:10:26.434Z,0.67
2023-01-17T09:12:53.302Z,1.57
2023-01-17T09:15:19.962Z,1.93
2023-01-17T09:17:46.750Z,0.70
2023-01-17T09:20:13.899Z,0.50
2023-01-17T09:22:41.934Z,0.77
2023-01-17T09:25:09.064Z,0.40
2023-01-17T09:27:35.743Z,0.60
2023-01-17T09:30:02.726Z,2.10
2023-01-17T09:32:29.384Z,1.07
2023-01-17T09:34:56.066Z,1.20
2023-01-17T09:37:22.819Z,1.40
2023-01-17T09:39:50.920Z,0.70
2023-01-17T09:42:21.547Z,0.87
2023-01-17T09:44:50.274Z,0.40
2023-01-17T09:47:26.766Z,1.53
2023-01-17T09:49:56.841Z,1.00
2023-01-17T09:52:24.442Z,2.67
2023-01-17T09:54:52.968Z,2.50
2023-01-17T09:57:36.291Z,3.90
2023-01-17T10:00:11.732Z,1.40
2023-01-17T10:02:50.730Z,3.47
2023-01-17T10:05:48.343Z,1.50
2023-01-17T10:08:38.525Z,2.20
2023-01-17T10:11:25.434Z,2.60
2023-01-17T10:14:02.750Z,2.33
2023-01-17T10:16:40.532Z,3.93
2023-01-17T10:19:14.379Z,1.07
2023-01-17T10:22:12.448Z,0.70
2023-01-17T10:25:04.756Z,4.60
2023-01-17T10:27:37.511Z,1.03
2023-01-17T10:30:16.384Z,2.83
2023-01-17T10:32:48.029Z,0.70
2023-01-17T10:35:20.695Z,1.63
2023-01-17T10:37:52.090Z,1.17
2023-01-17T10:40:26.123Z,2.90
2023-01-17T10:43:00.873Z,1.63
2023-01-17T10:45:28.536Z,1.60
2023-01-17T10:48:02.198Z,2.70
2023-01-17T10:50:42.045Z,1.80
2023-01-17T10:53:15.036Z,2.10
2023-01-17T10:55:46.527Z,4.53
2023-01-17T10:58:14.753Z,1.87
2023-01-17T11:00:47.576Z,3.80
2023-01-17T11:03:16.205Z,2.20
2023-01-17T11:05:43.764Z,1.57
2023-01-17T11:08:12.333Z,6.67
2023-01-17T11:10:42.289Z,6.20
2023-01-17T11:13:24.992Z,1.10
2023-01-17T11:15:55.465Z,0.60
2023-01-17T11:18:24.798Z,1.30
2023-01-17T11:20:51.676Z,3.03
2023-01-17T11:23:22.295Z,2.40
2023-01-17T11:25:50.957Z,0.80
2023-01-17T11:28:25.006Z,0.60
2023-01-17T11:30:54.527Z,2.17
2023-01-17T11:33:39.648Z,1.90
2023-01-17T11:36:14.177Z,2.10
2023-01-17T11:38:57.152Z,3.47
2023-01-17T11:41:25.130Z,4.87
2023-01-17T11:43:55.150Z,5.50
2023-01-17T11:46:22.483Z,6.10
2023-01-17T11:48:51.516Z,3.23
2023-01-17T11:51:24.039Z,3.70
2023-01-17T11:53:52.903Z,4.30
2023-01-17T11:56:24.805Z,3.07
2023-01-17T11:58:53.584Z,0.70
2023-01-17T12:01:33.228Z,3.60
2023-01-17T12:04:19.725Z,11.40
2023-01-17T12:06:58.104Z,2.30
2023-01-17T12:09:34.954Z,3.93
2023-01-17T12:12:11.317Z,4.00
2023-01-17T12:14:49.771Z,2.70
2023-01-17T12:17:30.850Z,4.23
2023-01-17T12:20:00.135Z,4.30
2023-01-17T12:22:46.615Z,4.00
2023-01-17T12:25:26.867Z,1.97
2023-01-17T12:28:11.454Z,3.67
2023-01-17T12:30:54.550Z,3.33
2023-01-17T12:33:27.424Z,3.27
2023-01-17T12:35:57.339Z,2.53
2023-01-17T12:38:32.811Z,2.13
2023-01-17T12:41:06.913Z,4.93
2023-01-17T12:43:36.377Z,3.13
2023-01-17T12:46:16.011Z,4.23
2023-01-17T12:48:43.972Z,7.20
2023-01-17T12:51:18.917Z,5.40
2023-01-17T12:53:53.511Z,3.13
2023-01-17T12:56:26.619Z,2.40
2023-01-17T12:59:00.958Z,5.70
2023-01-17T13:01:31.764Z,2.60
2023-01-17T13:04:08.357Z,3.73
2023-01-17T13:06:49.899Z,3.60
2023-01-17T13:09:22.371Z,2.10
2023-01-17T13:11:54.321Z,9.83
2023-01-17T13:14:21.115Z,5.90
2023-01-17T13:16:53.837Z,4.10
2023-01-17T13:19:28.828Z,2.23
2023-01-17T13:21:57.412Z,2.63
2023-01-17T13:24:38.220Z,6.53
2023-01-17T13:27:30.486Z,3.43
2023-01-17T13:32:59.918Z,4.23
2023-01-17T13:35:33.207Z,1.00
2023-01-17T13:38:12.150Z,3.77
2023-01-17T13:40:49.748Z,5.20
2023-01-17T13:43:20.755Z,3.90
2023-01-17T13:45:52.753Z,2.33
2023-01-17T13:48:29.699Z,3.70
2023-01-17T13:50:57.529Z,4.77
2023-01-17T13:53:57.489Z,2.73
2023-01-17T13:56:32.704Z,1.80
2023-01-17T13:59:03.172Z,2.83
2023-01-17T14:01:49.196Z,2.50
2023-01-17T14:04:17.340Z,3.27
2023-01-17T14:06:45.994Z,0.93
2023-01-17T14:09:22.033Z,1.70
2023-01-17T14:12:02.225Z,3.50
2023-01-17T14:14:47.446Z,1.37
2023-01-17T14:17:47.799Z,2.30
2023-01-17T14:20:40.174Z,5.60
2023-01-17T14:23:32.864Z,2.60
2023-01-17T14:26:12.522Z,0.87
2023-01-17T14:28:39.373Z,5.57
2023-01-17T14:31:10.672Z,3.13
2023-01-17T14:33:39.475Z,4.50
2023-01-17T14:36:12.954Z,4.90
2023-01-17T14:38:42.559Z,2.37
2023-01-17T14:41:13.857Z,5.30
2023-01-17T14:43:42.735Z,1.77
2023-01-17T14:46:18.485Z,1.17
2023-01-17T14:48:45.188Z,1.87
2023-01-17T14:51:14.941Z,1.97
2023-01-17T14:53:52.974Z,2.90
2023-01-17T14:56:19.681Z,4.13
2023-01-17T14:58:46.429Z,2.70
2023-01-17T15:01:14.695Z,5.87
2023-01-17T15:03:43.992Z,3.83
2023-01-17T15:06:17.017Z,8.53
2023-01-17T15:08:43.910Z,5.93
2023-01-17T15:11:17.659Z,2.30
2023-01-17T15:13:47.591Z,1.60
2023-01-17T15:16:20.507Z,1.80
2023-01-17T15:18:47.325Z,2.60
2023-01-17T15:21:18.307Z,2.20
2023-01-17T15:23:47.935Z,4.23
2023-01-17T15:26:17.350Z,1.90
2023-01-17T15:28:44.465Z,2.40
2023-01-17T15:31:14.100Z,2.93
2023-01-17T15:33:43.435Z,4.27
2023-01-17T15:36:28.227Z,3.20
2023-01-17T15:38:58.372Z,5.83
2023-01-17T15:41:27.026Z,10.80
2023-01-17T15:43:53.709Z,1.83
2023-01-17T15:46:22.343Z,2.30
2023-01-17T15:48:49.739Z,2.50
2023-01-17T15:51:31.880Z,6.00
2023-01-17T15:53:58.610Z,2.83
2023-01-17T15:56:33.235Z,5.70
2023-01-17T15:59:29.594Z,2.97
2023-01-17T16:01:57.535Z,2.20
2023-01-17T16:04:29.129Z,2.73
2023-01-17T16:07:09.278Z,2.60
2023-01-17T16:09:42.841Z,7.07
2023-01-17T16:12:09.698Z,2.93
2023-01-17T16:14:53.593Z,1.90
2023-01-17T16:17:23.235Z,3.40
2023-01-17T16:19:49.955Z,2.10
2023-01-17T16:22:17.961Z,4.00
2023-01-17T16:24:44.985Z,2.33
2023-01-17T16:27:11.807Z,2.23
2023-01-17T16:29:38.483Z,3.27
2023-01-17T16:32:05.621Z,3.17
2023-01-17T16:34:32.426Z,3.60
2023-01-17T16:36:59.228Z,4.80
2023-01-17T16:39:27.228Z,3.40
2023-01-17T16:42:00.270Z,2.87
2023-01-17T16:44:27.001Z,2.30
2023-01-17T16:46:53.679Z,5.20
2023-01-17T16:49:20.450Z,2.23
2023-01-17T16:51:47.147Z,3.07
2023-01-17T16:54:14.031Z,4.90
2023-01-17T16:56:42.066Z,4.30
2023-01-17T16:59:08.743Z,3.23
2023-01-17T17:01:35.485Z,2.30
2023-01-17T17:04:02.325Z,10.93
2023-01-17T17:06:30.560Z,3.73
2023-01-17T17:08:58.881Z,3.43
2023-01-17T17:11:25.583Z,6.33
2023-01-17T17:13:53.650Z,4.43
2023-01-17T17:16:22.455Z,10.00
2023-01-17T17:18:55.054Z,6.73
2023-01-17T17:21:21.971Z,3.43
2023-01-17T17:23:52.616Z,4.03
2023-01-17T17:26:19.371Z,3.63
2023-01-17T17:28:51.059Z,4.30
2023-01-17T17:31:19.321Z,6.20
2023-01-17T17:33:46.154Z,24.67
2023-01-17T17:36:13.198Z,18.27
2023-01-17T17:38:40.931Z,8.07
2023-01-17T17:41:08.586Z,3.90
2023-01-17T17:43:36.806Z,6.53
2023-01-17T17:46:03.695Z,5.10
2023-01-17T17:48:31.964Z,7.93
2023-01-17T17:50:59.865Z,7.03
2023-01-17T17:53:26.733Z,10.70
2023-01-17T17:55:53.787Z,10.10
2023-01-17T17:58:20.817Z,7.20
2023-01-17T18:00:47.799Z,5.17
2023-01-17T18:03:14.756Z,4.80
2023-01-17T18:05:42.856Z,4.67
2023-01-17T18:08:09.492Z,9.33
2023-01-17T18:10:36.479Z,9.30
2023-01-17T18:13:03.181Z,11.07
2023-01-17T18:15:29.900Z,5.20
2023-01-17T18:17:57.772Z,11.80
2023-01-17T18:20:24.511Z,9.10
2023-01-17T18:22:52.540Z,16.17
2023-01-17T18:25:19.219Z,17.47
2023-01-17T18:27:45.909Z,8.93
2023-01-17T18:30:12.982Z,14.80
2023-01-17T18:32:39.637Z,9.47
2023-01-17T18:35:07.070Z,17.00
2023-01-17T18:37:33.714Z,15.00
2023-01-17T18:40:01.948Z,14.93
2023-01-17T18:42:28.879Z,16.60
2023-01-17T18:44:55.612Z,16.93
2023-01-17T18:47:22.347Z,14.93
2023-01-17T18:49:49.029Z,15.27
2023-01-17T18:52:15.744Z,14.47
2023-01-17T18:54:42.438Z,11.43
2023-01-17T18:57:10.529Z,12.80
2023-01-17T18:59:37.219Z,17.07
2023-01-17T19:02:03.874Z,16.27
2023-01-17T19:04:30.558Z,14.07
2023-01-17T19:06:57.355Z,12.50
2023-01-17T19:09:24.181Z,17.97
2023-01-17T19:11:50.853Z,17.33
2023-01-17T19:14:18.870Z,15.47
2023-01-17T19:16:45.519Z,14.90
2023-01-17T19:19:14.609Z,13.80
2023-01-17T19:21:41.562Z,14.00
2023-01-17T19:24:10.297Z,19.87
2023-01-17T19:26:37.048Z,16.37
2023-01-17T19:29:03.805Z,13.70
2023-01-17T19:31:35.820Z,10.53
2023-01-17T19:34:02.543Z,13.40
2023-01-17T19:36:32.675Z,13.83
2023-01-17T19:39:04.849Z,13.93
2023-01-17T19:41:34.120Z,16.80
2023-01-17T19:44:03.487Z,15.03
2023-01-17T19:46:32.286Z,12.57
2023-01-17T19:48:59.250Z,15.20
2023-01-17T19:51:26.663Z,12.80
2023-01-17T19:53:53.634Z,16.23
2023-01-17T19:56:22.524Z,16.47
2023-01-17T19:58:50.454Z,16.30
2023-01-17T20:01:18.924Z,15.43
2023-01-17T20:03:47.548Z,18.38
2023-01-17T20:06:17.091Z,11.77
2023-01-17T20:08:43.884Z,16.93
2023-01-17T20:13:45.758Z,16.27
2023-01-17T20:16:16.065Z,18.77
2023-01-17T20:18:44.159Z,11.50
2023-01-17T20:21:15.331Z,13.93
2023-01-17T20:23:48.963Z,15.70
2023-01-17T20:26:20.981Z,15.93
2023-01-17T20:28:54.138Z,14.53
2023-01-17T20:31:25.613Z,14.83
2023-01-17T20:33:54.638Z,17.57
2023-01-17T20:36:28.092Z,27.87
2023-01-17T20:38:56.935Z,26.17
2023-01-17T20:41:29.717Z,19.53
2023-01-17T20:43:59.675Z,22.50
2023-01-17T20:46:28.970Z,16.03
2023-01-17T20:48:58.428Z,14.23
2023-01-17T20:51:29.487Z,13.73
2023-01-17T20:53:59.488Z,14.20
2023-01-17T20:56:27.778Z,15.88
2023-01-17T20:59:00.804Z,21.33
2023-01-17T21:01:29.614Z,13.83
2023-01-17T21:03:58.820Z,15.90
2023-01-17T21:06:28.337Z,19.10
2023-01-17T21:08:55.772Z,14.75
2023-01-17T21:11:25.560Z,14.90
2023-01-17T21:13:53.347Z,20.52
2023-01-17T21:16:31.280Z,13.88
2023-01-17T21:18:59.943Z,13.50
2023-01-17T21:21:30.054Z,20.63
2023-01-17T21:23:59.011Z,14.63
2023-01-17T21:26:27.800Z,21.35
2023-01-17T21:28:55.911Z,15.02
2023-01-17T21:31:27.336Z,16.92
2023-01-17T21:33:57.026Z,17.25
2023-01-17T21:36:28.993Z,10.82
2023-01-17T21:38:59.917Z,12.43
2023-01-17T21:41:29.608Z,13.95
2023-01-17T21:43:58.386Z,13.63
2023-01-17T21:46:27.495Z,36.28
2023-01-17T21:48:54.693Z,20.70
2023-01-17T21:51:22.108Z,18.10
2023-01-17T21:53:49.988Z,20.63
2023-01-17T21:56:19.093Z,22.15
2023-01-17T21:58:47.015Z,24.60
2023-01-17T22:01:15.984Z,19.63
2023-01-17T22:03:44.332Z,25.75
2023-01-17T22:06:14.531Z,15.30
2023-01-17T22:08:46.844Z,17.77
2023-01-17T22:11:17.170Z,23.75
2023-01-17T22:13:45.931Z,16.65
2023-01-17T22:16:16.065Z,21.90
2023-01-17T22:18:46.182Z,17.38
2023-01-17T22:21:16.334Z,27.40
2023-01-17T22:23:46.923Z,24.17
2023-01-17T22:26:14.323Z,21.60
2023-01-17T22:28:41.983Z,27.75
2023-01-17T22:31:16.934Z,21.42
2023-01-17T22:33:45.669Z,23.77
2023-01-17T22:36:14.762Z,34.65
2023-01-17T22:38:42.697Z,17.27
2023-01-17T22:41:12.307Z,21.42
2023-01-17T22:43:43.814Z,22.25
2023-01-17T22:46:14.554Z,18.00
2023-01-17T22:48:41.951Z,23.27
2023-01-17T22:51:11.184Z,29.58
2023-01-17T22:53:41.040Z,27.63
2023-01-17T22:56:10.751Z,29.40
2023-01-17T22:58:38.149Z,27.55
2023-01-17T23:01:09.521Z,22.08
2023-01-17T23:03:39.030Z,19.98
2023-01-17T23:06:11.481Z,21.42
2023-01-17T23:08:40.620Z,28.75
2023-01-17T23:11:23.637Z,21.77
2023-01-17T23:13:55.240Z,21.02
2023-01-17T23:16:23.045Z,17.92
2023-01-17T23:18:54.340Z,23.00
2023-01-17T23:21:25.024Z,36.67
2023-01-17T23:23:52.978Z,23.63
2023-01-17T23:26:20.308Z,21.60
2023-01-17T23:28:48.207Z,22.52
2023-01-17T23:31:15.617Z,34.70
2023-01-17T23:33:44.244Z,19.85
2023-01-17T23:36:12.700Z,22.95
2023-01-17T23:38:39.735Z,25.92
2023-01-17T23:41:09.900Z,19.83
2023-01-17T23:43:40.617Z,24.67
2023-01-17T23:46:12.850Z,19.33
2023-01-17T23:48:40.683Z,20.42
2023-01-17T23:51:11.812Z,20.75
2023-01-17T23:53:44.083Z,22.85
2023-01-17T23:56:15.654Z,25.77
2023-01-17T23:58:43.077Z,24.38
